Time;durP1;ratioP1;P1;durP2;ratioP2;P2;SDS_P1;SDS_P2;PMS_P1;PMS_P2;Temp;Humidity;BMP_temperature;BMP_pressure;BME280_temperature;BME280_humidity;BME280_pressure;Samples;Min_cycle;Max_cycle;Signal;HPM_P1;HPM_P2
2023/09/14 00:01:00;;;;;;;5.22;1.60;;;;;;;;;;4925671;29;20763;-76
2023/09/14 00:03:25;;;;;;;4.68;1.60;;;;;;;;;;4909769;29;20035;-76
2023/09/14 00:05:51;;;;;;;8.88;1.70;;;;;;;;;;4926289;29;20032;-77
2023/09/14 00:08:16;;;;;;;4.07;1.60;;;;;;;;;;4942776;29;20039;-77
2023/09/14 00:10:42;;;;;;;4.97;1.40;;;;;;;;;;4927092;29;20063;-78
2023/09/14 00:13:09;;;;;;;6.97;1.65;;;;;;;;;;4927087;29;20043;-76
2023/09/14 00:15:39;;;;;;;2.95;1.40;;;;;;;;;;4941985;29;20027;-77
2023/09/14 00:18:07;;;;;;;4.88;1.77;;;;;;;;;;4925616;29;20035;-76
2023/09/14 00:20:34;;;;;;;7.22;2.13;;;;;;;;;;4940603;29;20484;-76
2023/09/14 00:22:59;;;;;;;5.63;1.60;;;;;;;;;;4939844;29;20088;-77
2023/09/14 00:25:25;;;;;;;6.28;1.50;;;;;;;;;;4924662;29;20032;-76
2023/09/14 00:27:51;;;;;;;3.22;1.30;;;;;;;;;;4923202;29;20044;-76
2023/09/14 00:30:18;;;;;;;7.63;2.17;;;;;;;;;;4923166;29;20063;-77
2023/09/14 00:32:44;;;;;;;3.60;1.40;;;;;;;;;;4924818;29;20044;-77
2023/09/14 00:35:13;;;;;;;6.50;1.48;;;;;;;;;;4923964;29;20459;-77
2023/09/14 00:37:39;;;;;;;5.63;1.40;;;;;;;;;;4941284;29;20028;-76
2023/09/14 00:40:08;;;;;;;4.75;1.80;;;;;;;;;;4924629;29;20036;-77
2023/09/14 00:42:41;;;;;;;5.03;1.75;;;;;;;;;;4910473;29;20381;-76
2023/09/14 00:45:10;;;;;;;3.38;1.50;;;;;;;;;;4943053;29;20052;-77
2023/09/14 00:47:36;;;;;;;6.55;1.58;;;;;;;;;;4943595;29;20032;-78
2023/09/14 00:50:04;;;;;;;6.35;1.75;;;;;;;;;;4925798;29;20449;-76
2023/09/14 00:52:29;;;;;;;4.75;1.67;;;;;;;;;;4941561;29;20411;-76
2023/09/14 00:54:55;;;;;;;6.78;1.90;;;;;;;;;;4942513;29;20039;-76
2023/09/14 00:57:20;;;;;;;5.38;1.88;;;;;;;;;;4926849;29;20395;-76
2023/09/14 00:59:47;;;;;;;3.05;1.55;;;;;;;;;;4926480;29;20120;-77
2023/09/14 01:02:13;;;;;;;6.38;1.90;;;;;;;;;;4928350;29;20108;-77
2023/09/14 01:04:39;;;;;;;4.55;1.83;;;;;;;;;;4943197;29;20527;-77
2023/09/14 01:07:05;;;;;;;5.57;1.58;;;;;;;;;;4928026;29;20036;-77
2023/09/14 01:09:30;;;;;;;4.45;1.70;;;;;;;;;;4927704;29;20123;-78
2023/09/14 01:11:56;;;;;;;6.00;1.90;;;;;;;;;;4924608;29;20051;-76
2023/09/14 01:14:25;;;;;;;6.53;1.90;;;;;;;;;;4939997;29;20031;-76
2023/09/14 01:16:55;;;;;;;5.85;2.10;;;;;;;;;;4941055;29;20032;-77
2023/09/14 01:19:31;;;;;;;6.05;2.20;;;;;;;;;;4939411;29;20430;-76
2023/09/14 01:22:15;;;;;;;5.43;2.10;;;;;;;;;;4937821;29;20043;-76
2023/09/14 01:24:59;;;;;;;7.95;2.83;;;;;;;;;;4939284;29;20399;-77
2023/09/14 01:27:25;;;;;;;4.35;2.40;;;;;;;;;;4925278;29;20028;-76
2023/09/14 01:29:51;;;;;;;4.85;2.42;;;;;;;;;;4923784;29;20127;-75
2023/09/14 01:32:17;;;;;;;8.23;3.40;;;;;;;;;;4939547;29;20535;-76
2023/09/14 01:34:42;;;;;;;10.38;3.30;;;;;;;;;;4940009;29;20024;-77
2023/09/14 01:37:08;;;;;;;7.47;3.10;;;;;;;;;;4927980;29;20040;-77
2023/09/14 01:39:35;;;;;;;7.22;2.65;;;;;;;;;;4942136;29;20488;-76
2023/09/14 01:42:01;;;;;;;7.20;2.80;;;;;;;;;;4925689;29;20040;-77
2023/09/14 01:44:27;;;;;;;7.50;2.88;;;;;;;;;;4942362;29;20032;-76
2023/09/14 01:46:54;;;;;;;8.95;2.60;;;;;;;;;;4942758;29;20036;-77
2023/09/14 01:49:19;;;;;;;10.05;2.80;;;;;;;;;;4928882;29;20143;-76
2023/09/14 01:51:45;;;;;;;6.28;2.50;;;;;;;;;;4928621;29;20040;-76
2023/09/14 01:54:11;;;;;;;10.80;2.70;;;;;;;;;;4942948;29;20623;-77
2023/09/14 01:56:36;;;;;;;5.57;2.35;;;;;;;;;;4944022;29;20060;-77
2023/09/14 01:59:02;;;;;;;8.02;2.97;;;;;;;;;;4942876;29;20519;-76
2023/09/14 02:01:28;;;;;;;6.40;2.97;;;;;;;;;;4910710;29;20028;-76
2023/09/14 02:03:54;;;;;;;6.60;2.65;;;;;;;;;;4927318;29;20460;-76
2023/09/14 02:06:19;;;;;;;7.68;3.00;;;;;;;;;;4927126;29;20040;-77
2023/09/14 02:08:45;;;;;;;10.75;3.55;;;;;;;;;;4927426;29;20035;-76
2023/09/14 02:11:13;;;;;;;7.15;2.58;;;;;;;;;;4927712;29;20036;-76
2023/09/14 02:13:41;;;;;;;5.90;3.05;;;;;;;;;;4927257;29;20047;-76
2023/09/14 02:16:08;;;;;;;9.07;2.97;;;;;;;;;;4927031;29;20048;-77
2023/09/14 02:18:33;;;;;;;13.07;3.92;;;;;;;;;;4925024;29;20025;-77
2023/09/14 02:20:59;;;;;;;7.90;3.25;;;;;;;;;;4941453;29;20404;-76
2023/09/14 02:23:24;;;;;;;8.70;3.03;;;;;;;;;;4927001;29;20032;-77
2023/09/14 02:25:50;;;;;;;6.53;3.30;;;;;;;;;;4927526;29;20088;-76
2023/09/14 02:28:16;;;;;;;6.22;2.90;;;;;;;;;;4927192;29;20103;-76
2023/09/14 02:30:41;;;;;;;6.25;2.70;;;;;;;;;;4941243;29;20044;-77
2023/09/14 02:33:07;;;;;;;8.35;2.72;;;;;;;;;;4925319;29;20057;-75
2023/09/14 02:35:34;;;;;;;7.28;2.75;;;;;;;;;;4937113;29;20032;-78
2023/09/14 02:38:01;;;;;;;9.82;3.10;;;;;;;;;;4924723;29;20097;-76
2023/09/14 02:40:26;;;;;;;7.50;3.17;;;;;;;;;;4943230;29;20032;-77
2023/09/14 02:42:52;;;;;;;6.30;2.65;;;;;;;;;;4944538;29;20072;-77
2023/09/14 02:45:17;;;;;;;10.35;3.08;;;;;;;;;;4946144;29;20048;-76
2023/09/14 02:47:43;;;;;;;10.45;3.35;;;;;;;;;;4947847;29;20036;-77
2023/09/14 02:50:08;;;;;;;5.63;2.65;;;;;;;;;;4936672;29;20120;-77
2023/09/14 02:52:34;;;;;;;7.35;2.60;;;;;;;;;;4920862;29;20025;-77
2023/09/14 02:54:59;;;;;;;8.48;2.70;;;;;;;;;;4923399;29;20104;-77
2023/09/14 02:57:25;;;;;;;7.15;2.78;;;;;;;;;;4906278;29;20032;-75
2023/09/14 02:59:54;;;;;;;7.22;2.58;;;;;;;;;;4907176;29;20029;-77
2023/09/14 03:02:24;;;;;;;8.98;2.70;;;;;;;;;;4906607;29;20033;-77
2023/09/14 03:04:52;;;;;;;6.55;2.63;;;;;;;;;;4906784;29;20077;-76
2023/09/14 03:07:17;;;;;;;8.63;2.72;;;;;;;;;;4920507;29;20040;-77
2023/09/14 03:09:43;;;;;;;9.27;3.53;;;;;;;;;;4920442;29;20350;-76
2023/09/14 03:12:09;;;;;;;7.43;3.10;;;;;;;;;;4903704;29;20077;-76
2023/09/14 03:14:34;;;;;;;7.97;2.55;;;;;;;;;;4919121;29;20115;-76
2023/09/14 03:17:00;;;;;;;7.30;2.80;;;;;;;;;;4919171;29;20084;-77
2023/09/14 03:19:26;;;;;;;11.93;3.10;;;;;;;;;;4916609;29;20052;-76
2023/09/14 03:21:51;;;;;;;7.30;2.72;;;;;;;;;;4920000;29;20384;-76
2023/09/14 03:24:17;;;;;;;9.98;2.67;;;;;;;;;;4931352;29;20069;-76
2023/09/14 03:26:43;;;;;;;6.95;2.58;;;;;;;;;;4924030;29;20057;-76
2023/09/14 03:29:08;;;;;;;8.55;2.63;;;;;;;;;;4938171;29;20056;-75
2023/09/14 03:31:35;;;;;;;5.13;2.13;;;;;;;;;;4922682;29;20100;-76
2023/09/14 03:34:04;;;;;;;10.70;3.45;;;;;;;;;;4922388;29;20040;-76
2023/09/14 03:36:29;;;;;;;13.60;3.30;;;;;;;;;;4921329;29;20099;-76
2023/09/14 03:38:55;;;;;;;5.60;2.50;;;;;;;;;;4921124;29;20032;-77
2023/09/14 03:41:25;;;;;;;11.90;2.88;;;;;;;;;;4917261;29;20036;-76
2023/09/14 03:43:52;;;;;;;6.82;2.60;;;;;;;;;;4915882;29;20140;-76
2023/09/14 03:46:18;;;;;;;7.65;2.60;;;;;;;;;;4916248;29;20513;-76
2023/09/14 03:48:45;;;;;;;8.20;2.38;;;;;;;;;;4916334;29;20041;-76
2023/09/14 03:51:10;;;;;;;9.63;2.80;;;;;;;;;;4897486;29;20515;-75
2023/09/14 03:53:35;;;;;;;8.18;2.60;;;;;;;;;;4897769;29;20036;-75
2023/09/14 03:56:01;;;;;;;12.25;3.50;;;;;;;;;;4925129;29;20028;-76
2023/09/14 03:58:27;;;;;;;10.35;2.90;;;;;;;;;;4931336;29;20055;-77
2023/09/14 04:00:53;;;;;;;7.20;2.20;;;;;;;;;;4916717;29;20496;-77
2023/09/14 04:03:19;;;;;;;7.10;2.78;;;;;;;;;;4915090;29;20036;-76
2023/09/14 04:05:45;;;;;;;7.22;2.63;;;;;;;;;;4915570;29;20454;-76
2023/09/14 04:08:11;;;;;;;7.40;2.55;;;;;;;;;;4917026;29;20456;-76
2023/09/14 04:10:37;;;;;;;8.95;2.50;;;;;;;;;;4916951;29;20031;-76
2023/09/14 04:13:21;;;;;;;11.57;2.80;;;;;;;;;;4916009;29;20119;-75
2023/09/14 04:15:47;;;;;;;13.80;2.80;;;;;;;;;;4917017;29;20460;-77
2023/09/14 04:18:13;;;;;;;11.60;2.75;;;;;;;;;;4931120;29;20036;-77
2023/09/14 04:20:38;;;;;;;8.88;2.60;;;;;;;;;;4915126;29;20084;-76
2023/09/14 04:23:04;;;;;;;7.65;2.13;;;;;;;;;;4931138;29;20535;-76
2023/09/14 04:25:29;;;;;;;7.93;2.35;;;;;;;;;;4931924;29;20048;-76
2023/09/14 04:27:55;;;;;;;10.07;2.47;;;;;;;;;;4930456;29;20459;-76
2023/09/14 04:30:20;;;;;;;7.53;2.78;;;;;;;;;;4931092;29;20047;-76
2023/09/14 04:32:46;;;;;;;10.65;2.70;;;;;;;;;;4916390;29;20032;-76
2023/09/14 04:35:12;;;;;;;7.05;2.75;;;;;;;;;;4916563;29;20081;-76
2023/09/14 04:37:38;;;;;;;8.35;2.55;;;;;;;;;;4930935;29;20040;-76
2023/09/14 04:40:07;;;;;;;11.43;2.70;;;;;;;;;;4917874;29;20032;-75
2023/09/14 04:42:32;;;;;;;10.50;2.72;;;;;;;;;;4934309;29;20036;-76
2023/09/14 04:44:58;;;;;;;7.07;2.63;;;;;;;;;;4917494;29;20408;-75
2023/09/14 04:47:23;;;;;;;11.40;2.80;;;;;;;;;;4918521;29;20047;-75
2023/09/14 04:49:49;;;;;;;8.75;2.92;;;;;;;;;;4934797;29;20055;-75
2023/09/14 04:52:14;;;;;;;9.98;2.85;;;;;;;;;;4934610;29;20052;-76
2023/09/14 04:54:39;;;;;;;10.52;2.83;;;;;;;;;;4936113;29;20036;-75
2023/09/14 04:57:05;;;;;;;9.57;2.70;;;;;;;;;;4919407;29;20038;-75
2023/09/14 04:59:31;;;;;;;12.65;2.75;;;;;;;;;;4933811;29;20032;-75
2023/09/14 05:01:57;;;;;;;6.65;2.92;;;;;;;;;;4918176;29;20040;-76
2023/09/14 05:04:22;;;;;;;8.57;2.83;;;;;;;;;;4934421;29;20094;-75
2023/09/14 05:06:48;;;;;;;12.27;2.70;;;;;;;;;;4920097;29;20576;-76
2023/09/14 05:09:13;;;;;;;8.13;2.90;;;;;;;;;;4919631;29;20138;-77
2023/09/14 05:11:39;;;;;;;6.53;2.80;;;;;;;;;;4920150;29;20044;-75
2023/09/14 05:14:05;;;;;;;6.20;2.30;;;;;;;;;;4921370;29;20039;-75
2023/09/14 05:16:30;;;;;;;10.10;3.00;;;;;;;;;;4921841;29;20472;-76
2023/09/14 05:18:56;;;;;;;9.50;3.03;;;;;;;;;;4920509;29;20506;-76
2023/09/14 05:21:21;;;;;;;11.15;3.05;;;;;;;;;;4934205;29;20036;-76
2023/09/14 05:23:47;;;;;;;7.60;2.15;;;;;;;;;;4935395;29;20051;-76
2023/09/14 05:26:13;;;;;;;9.57;2.97;;;;;;;;;;4920942;29;20040;-75
2023/09/14 05:28:39;;;;;;;9.07;2.95;;;;;;;;;;4935554;29;20051;-77
2023/09/14 05:31:04;;;;;;;11.18;2.70;;;;;;;;;;4919505;29;20400;-76
2023/09/14 05:33:30;;;;;;;12.20;3.13;;;;;;;;;;4920348;29;20072;-77
2023/09/14 05:35:55;;;;;;;10.77;2.60;;;;;;;;;;4919872;29;20059;-76
2023/09/14 05:38:21;;;;;;;10.73;3.15;;;;;;;;;;4934584;29;20091;-77
2023/09/14 05:40:46;;;;;;;9.02;3.17;;;;;;;;;;4920156;29;20036;-77
2023/09/14 05:43:12;;;;;;;8.68;2.45;;;;;;;;;;4936602;29;20032;-76
2023/09/14 05:45:39;;;;;;;14.15;3.67;;;;;;;;;;4937208;29;20135;-75
2023/09/14 05:48:05;;;;;;;15.15;3.75;;;;;;;;;;4938534;29;20032;-76
2023/09/14 05:50:33;;;;;;;17.10;3.80;;;;;;;;;;4937609;29;20083;-76
2023/09/14 05:52:58;;;;;;;13.75;3.08;;;;;;;;;;4937069;29;20040;-76
2023/09/14 05:55:24;;;;;;;12.45;2.35;;;;;;;;;;4924510;29;20115;-75
2023/09/14 05:57:49;;;;;;;7.82;3.03;;;;;;;;;;4938360;29;20044;-76
2023/09/14 06:00:18;;;;;;;8.50;3.00;;;;;;;;;;4936559;29;20036;-76
2023/09/14 06:02:49;;;;;;;11.15;3.65;;;;;;;;;;4935285;29;20094;-76
2023/09/14 06:05:15;;;;;;;5.80;2.17;;;;;;;;;;4936551;29;20499;-76
2023/09/14 06:07:40;;;;;;;9.98;2.33;;;;;;;;;;4936984;29;20062;-77
2023/09/14 06:10:06;;;;;;;11.60;3.35;;;;;;;;;;4923569;29;20123;-76
2023/09/14 06:12:32;;;;;;;16.60;3.58;;;;;;;;;;4922674;29;20043;-76
2023/09/14 06:14:58;;;;;;;6.30;2.60;;;;;;;;;;4937457;29;20522;-76
2023/09/14 06:17:23;;;;;;;18.65;2.45;;;;;;;;;;4943599;29;20083;-76
2023/09/14 06:19:49;;;;;;;8.27;2.50;;;;;;;;;;4925063;29;20115;-77
2023/09/14 06:22:15;;;;;;;12.32;3.13;;;;;;;;;;4923231;29;20040;-76
2023/09/14 06:24:40;;;;;;;10.68;3.00;;;;;;;;;;4923832;29;20035;-76
2023/09/14 06:27:06;;;;;;;6.90;1.65;;;;;;;;;;4924740;29;20051;-76
2023/09/14 06:29:31;;;;;;;10.57;2.65;;;;;;;;;;4924460;29;20061;-77
2023/09/14 06:31:57;;;;;;;13.80;3.00;;;;;;;;;;4938485;29;20036;-75
2023/09/14 06:34:22;;;;;;;10.80;2.85;;;;;;;;;;4937026;29;20092;-75
2023/09/14 06:36:48;;;;;;;8.95;2.50;;;;;;;;;;4936215;29;20032;-75
2023/09/14 06:39:14;;;;;;;8.05;2.47;;;;;;;;;;4906135;29;20032;-75
2023/09/14 06:41:40;;;;;;;8.20;2.95;;;;;;;;;;4923414;29;20031;-76
2023/09/14 06:44:05;;;;;;;9.23;2.72;;;;;;;;;;4922376;29;20076;-76
2023/09/14 06:46:31;;;;;;;10.27;3.35;;;;;;;;;;4936189;29;20181;-75
2023/09/14 06:48:57;;;;;;;8.07;2.40;;;;;;;;;;4921096;29;20036;-76
2023/09/14 06:51:22;;;;;;;19.23;2.92;;;;;;;;;;4919289;29;20032;-76
2023/09/14 06:53:48;;;;;;;7.38;2.72;;;;;;;;;;4932721;29;20028;-76
2023/09/14 06:56:15;;;;;;;8.52;2.60;;;;;;;;;;4920927;29;20083;-75
2023/09/14 06:58:40;;;;;;;11.35;2.72;;;;;;;;;;4942466;29;20032;-75
2023/09/14 07:01:06;;;;;;;8.05;2.53;;;;;;;;;;4927382;29;20149;-75
2023/09/14 07:03:32;;;;;;;11.30;3.80;;;;;;;;;;4943358;29;20027;-76
2023/09/14 07:05:58;;;;;;;9.68;2.70;;;;;;;;;;4937127;29;20040;-76
2023/09/14 07:08:24;;;;;;;8.73;2.03;;;;;;;;;;4922261;29;20028;-75
2023/09/14 07:10:49;;;;;;;8.15;2.33;;;;;;;;;;4913437;29;20061;-75
2023/09/14 07:13:15;;;;;;;7.88;2.20;;;;;;;;;;4931075;29;20067;-75
2023/09/14 07:15:41;;;;;;;10.88;2.60;;;;;;;;;;4932756;29;20028;-75
2023/09/14 07:18:07;;;;;;;9.20;2.92;;;;;;;;;;4927122;29;20092;-75
2023/09/14 07:20:32;;;;;;;13.02;2.72;;;;;;;;;;4916914;29;20075;-76
2023/09/14 07:22:58;;;;;;;9.93;2.75;;;;;;;;;;4922031;29;20087;-75
2023/09/14 07:25:24;;;;;;;9.63;2.67;;;;;;;;;;4941313;29;20047;-76
2023/09/14 07:27:50;;;;;;;9.50;2.63;;;;;;;;;;4942787;29;20028;-75
2023/09/14 07:30:15;;;;;;;10.27;2.65;;;;;;;;;;4927119;29;20079;-75
2023/09/14 07:32:41;;;;;;;8.70;2.90;;;;;;;;;;4927525;29;20043;-75
2023/09/14 07:35:07;;;;;;;10.27;2.50;;;;;;;;;;4926842;29;20032;-76
2023/09/14 07:37:34;;;;;;;9.27;2.50;;;;;;;;;;4925346;29;20484;-77
2023/09/14 07:39:59;;;;;;;6.97;2.35;;;;;;;;;;4924223;29;20507;-76
2023/09/14 07:42:25;;;;;;;9.40;2.70;;;;;;;;;;4910249;29;20044;-75
2023/09/14 07:44:50;;;;;;;8.80;2.80;;;;;;;;;;4925757;29;20083;-76
2023/09/14 07:47:16;;;;;;;7.10;2.70;;;;;;;;;;4923909;29;20088;-76
2023/09/14 07:49:45;;;;;;;9.07;2.75;;;;;;;;;;4922733;29;20059;-76
2023/09/14 07:52:11;;;;;;;11.90;3.30;;;;;;;;;;4917099;29;20039;-76
2023/09/14 07:54:36;;;;;;;12.23;2.92;;;;;;;;;;4930082;29;20028;-76
2023/09/14 07:57:02;;;;;;;13.05;2.92;;;;;;;;;;4915175;29;20395;-76
2023/09/14 07:59:28;;;;;;;11.05;3.60;;;;;;;;;;4931284;29;20395;-76
2023/09/14 08:01:53;;;;;;;8.07;2.40;;;;;;;;;;4915522;29;20091;-76
2023/09/14 08:04:19;;;;;;;9.07;2.95;;;;;;;;;;4930272;29;20123;-75
2023/09/14 08:06:45;;;;;;;9.55;2.50;;;;;;;;;;4931251;29;20038;-76
2023/09/14 08:09:10;;;;;;;13.45;3.00;;;;;;;;;;4931618;29;20118;-75
2023/09/14 08:11:36;;;;;;;11.25;2.70;;;;;;;;;;4916623;29;20060;-75
2023/09/14 08:14:02;;;;;;;15.60;2.60;;;;;;;;;;4899759;29;20112;-75
2023/09/14 08:16:32;;;;;;;9.25;2.65;;;;;;;;;;4925714;29;20476;-76
2023/09/14 08:18:57;;;;;;;10.32;2.45;;;;;;;;;;4934740;29;20373;-75
2023/09/14 08:21:23;;;;;;;9.38;2.90;;;;;;;;;;4934630;29;20036;-75
2023/09/14 08:23:49;;;;;;;9.70;2.30;;;;;;;;;;4919418;29;20039;-75
2023/09/14 08:26:14;;;;;;;7.90;2.50;;;;;;;;;;4934050;29;20084;-77
2023/09/14 08:28:40;;;;;;;9.35;2.35;;;;;;;;;;4934341;29;20040;-75
2023/09/14 08:31:05;;;;;;;6.53;2.10;;;;;;;;;;4919705;29;20028;-75
2023/09/14 08:33:31;;;;;;;11.23;2.92;;;;;;;;;;4934567;29;20032;-75
2023/09/14 08:35:57;;;;;;;7.22;2.08;;;;;;;;;;4933798;29;20032;-75
2023/09/14 08:38:25;;;;;;;6.63;2.30;;;;;;;;;;4919661;29;20028;-76
2023/09/14 08:40:55;;;;;;;12.77;4.68;;;;;;;;;;4918369;29;20039;-76
2023/09/14 08:43:21;;;;;;;10.73;3.08;;;;;;;;;;4934519;29;20051;-76
2023/09/14 08:45:47;;;;;;;9.18;2.22;;;;;;;;;;4918727;29;20047;-76
2023/09/14 08:48:15;;;;;;;12.13;3.22;;;;;;;;;;4935057;29;20517;-76
2023/09/14 08:50:43;;;;;;;13.05;3.03;;;;;;;;;;4922762;29;20075;-76
2023/09/14 08:53:10;;;;;;;11.98;3.17;;;;;;;;;;4921086;29;20423;-76
2023/09/14 08:55:36;;;;;;;9.70;2.95;;;;;;;;;;4919737;29;20034;-76
2023/09/14 08:58:02;;;;;;;11.32;3.25;;;;;;;;;;4918404;29;20036;-75
2023/09/14 09:00:28;;;;;;;10.13;2.95;;;;;;;;;;4934135;29;20024;-76
2023/09/14 09:02:54;;;;;;;10.98;4.20;;;;;;;;;;4919290;29;20112;-76
2023/09/14 09:05:21;;;;;;;11.80;3.28;;;;;;;;;;4917985;29;20039;-75
2023/09/14 09:07:50;;;;;;;8.05;2.63;;;;;;;;;;4916999;29;20078;-75
2023/09/14 09:10:20;;;;;;;8.13;2.60;;;;;;;;;;4918434;29;20043;-76
2023/09/14 09:12:46;;;;;;;10.55;2.85;;;;;;;;;;4934369;29;20036;-77
2023/09/14 09:15:13;;;;;;;7.40;2.67;;;;;;;;;;4918422;29;20079;-75
2023/09/14 09:17:39;;;;;;;8.52;2.60;;;;;;;;;;4920820;29;20174;-76
2023/09/14 09:20:14;;;;;;;7.55;2.97;;;;;;;;;;4904083;29;20130;-76
2023/09/14 09:22:43;;;;;;;8.82;2.72;;;;;;;;;;4921377;29;20072;-76
2023/09/14 09:25:10;;;;;;;7.57;2.60;;;;;;;;;;4936622;29;20032;-76
2023/09/14 09:27:35;;;;;;;10.00;3.13;;;;;;;;;;4936225;29;20063;-76
2023/09/14 09:30:01;;;;;;;7.93;2.70;;;;;;;;;;4922532;29;20036;-76
2023/09/14 09:32:27;;;;;;;11.45;3.30;;;;;;;;;;4919616;29;20126;-77
2023/09/14 09:34:52;;;;;;;11.30;3.25;;;;;;;;;;4917999;29;20056;-76
2023/09/14 09:37:18;;;;;;;16.70;3.70;;;;;;;;;;4933568;29;20032;-76
2023/09/14 09:39:44;;;;;;;21.52;3.63;;;;;;;;;;4917920;29;20052;-76
2023/09/14 09:42:13;;;;;;;9.10;2.92;;;;;;;;;;4917922;29;20455;-75
2023/09/14 09:44:39;;;;;;;11.93;2.58;;;;;;;;;;4918076;29;20032;-76
2023/09/14 09:47:05;;;;;;;10.55;2.80;;;;;;;;;;4901721;29;20369;-75
2023/09/14 09:49:31;;;;;;;11.15;3.10;;;;;;;;;;4917231;29;20060;-75
2023/09/14 09:51:57;;;;;;;10.13;2.90;;;;;;;;;;4909267;29;20057;-76
2023/09/14 09:54:27;;;;;;;10.95;2.63;;;;;;;;;;4917327;29;20507;-76
2023/09/14 09:56:53;;;;;;;9.82;2.75;;;;;;;;;;4932963;29;20079;-75
2023/09/14 09:59:18;;;;;;;8.50;2.80;;;;;;;;;;4918239;29;20032;-75
2023/09/14 10:01:47;;;;;;;14.85;3.40;;;;;;;;;;4918610;29;20066;-76
2023/09/14 10:04:14;;;;;;;7.65;3.28;;;;;;;;;;4932970;29;20043;-74
2023/09/14 10:06:41;;;;;;;7.25;3.00;;;;;;;;;;4918234;29;20032;-75
2023/09/14 10:09:10;;;;;;;8.35;2.38;;;;;;;;;;4918621;29;20457;-75
2023/09/14 10:11:37;;;;;;;6.53;2.42;;;;;;;;;;4933327;29;20038;-75
2023/09/14 10:14:03;;;;;;;7.85;2.50;;;;;;;;;;4916976;29;20122;-76
2023/09/14 10:16:30;;;;;;;6.65;2.30;;;;;;;;;;4918259;29;20024;-76
2023/09/14 10:18:56;;;;;;;8.07;2.30;;;;;;;;;;4918387;29;20511;-76
2023/09/14 10:21:22;;;;;;;12.30;2.28;;;;;;;;;;4915911;29;20036;-76
2023/09/14 10:23:49;;;;;;;7.95;2.22;;;;;;;;;;4932035;29;20032;-77
2023/09/14 10:26:14;;;;;;;6.55;2.22;;;;;;;;;;4916790;29;20074;-76
2023/09/14 10:28:40;;;;;;;10.38;2.00;;;;;;;;;;4916818;29;20060;-76
2023/09/14 10:31:06;;;;;;;9.18;2.42;;;;;;;;;;4918503;29;20036;-76
2023/09/14 10:33:32;;;;;;;7.18;2.10;;;;;;;;;;4918298;29;20099;-76
2023/09/14 10:35:59;;;;;;;7.43;2.00;;;;;;;;;;4917387;29;20563;-76
2023/09/14 10:38:25;;;;;;;6.80;2.10;;;;;;;;;;4915124;29;20036;-75
2023/09/14 10:40:53;;;;;;;7.13;2.42;;;;;;;;;;4916695;29;20028;-76
2023/09/14 10:43:19;;;;;;;8.18;2.35;;;;;;;;;;4931831;29;20568;-77
2023/09/14 10:45:45;;;;;;;10.48;2.95;;;;;;;;;;4917607;29;20036;-75
2023/09/14 10:48:15;;;;;;;8.00;2.90;;;;;;;;;;4917823;29;20055;-76
2023/09/14 10:50:41;;;;;;;10.73;2.58;;;;;;;;;;4932148;29;20036;-76
2023/09/14 10:53:06;;;;;;;12.05;2.33;;;;;;;;;;4915659;29;20035;-77
2023/09/14 10:55:35;;;;;;;7.10;2.08;;;;;;;;;;4916945;29;20139;-76
2023/09/14 10:58:00;;;;;;;;;;;;;;;;;;4917224;29;20032;-76
2023/09/14 11:00:32;;;;;;;5.57;2.03;;;;;;;;;;4932327;29;19918;-77
2023/09/14 11:02:57;;;;;;;6.88;2.00;;;;;;;;;;4915547;29;20036;-77
2023/09/14 11:05:40;;;;;;;7.25;2.13;;;;;;;;;;4931519;29;20040;-77
2023/09/14 11:08:05;;;;;;;6.63;1.83;;;;;;;;;;4916975;29;20373;-76
2023/09/14 11:10:34;;;;;;;8.35;2.10;;;;;;;;;;4915948;29;20035;-76
2023/09/14 11:13:18;;;;;;;5.63;2.03;;;;;;;;;;4931586;29;20040;-76
2023/09/14 11:15:46;;;;;;;6.88;2.20;;;;;;;;;;4903697;29;20119;-76
2023/09/14 11:18:32;;;;;;;11.40;2.35;;;;;;;;;;4916401;29;20367;-76
2023/09/14 11:20:57;;;;;;;11.05;2.92;;;;;;;;;;4916670;29;20408;-76
2023/09/14 11:23:31;;;;;;;6.55;2.22;;;;;;;;;;4917322;29;20040;-76
2023/09/14 11:25:59;;;;;;;6.13;2.55;;;;;;;;;;4917085;29;20038;-76
2023/09/14 11:28:25;;;;;;;5.93;2.10;;;;;;;;;;4917031;29;20476;-76
2023/09/14 11:30:51;;;;;;;5.68;1.83;;;;;;;;;;4931964;29;20119;-76
2023/09/14 11:33:16;;;;;;;4.55;1.80;;;;;;;;;;4915749;29;20100;-76
2023/09/14 11:35:46;;;;;;;6.65;2.00;;;;;;;;;;4916603;29;20135;-77
2023/09/14 11:38:16;;;;;;;7.97;2.33;;;;;;;;;;4933641;29;20098;-78
2023/09/14 11:40:42;;;;;;;8.57;2.30;;;;;;;;;;4918247;29;20032;-78
2023/09/14 11:43:19;;;;;;;6.70;1.95;;;;;;;;;;4936427;29;20160;-77
2023/09/14 11:45:45;;;;;;;4.60;1.80;;;;;;;;;;4925639;29;20115;-77
2023/09/14 11:48:12;;;;;;;6.88;1.48;;;;;;;;;;4920608;29;20056;-77
2023/09/14 11:50:40;;;;;;;6.03;2.08;;;;;;;;;;4919039;29;20225;-78
2023/09/14 11:53:07;;;;;;;8.18;2.55;;;;;;;;;;4935365;29;20036;-76
2023/09/14 11:55:33;;;;;;;8.37;2.33;;;;;;;;;;4935349;29;20032;-77
2023/09/14 11:57:58;;;;;;;6.97;2.00;;;;;;;;;;4919389;29;20054;-76
2023/09/14 12:00:24;;;;;;;5.00;2.20;;;;;;;;;;4919265;29;20448;-77
2023/09/14 12:02:50;;;;;;;7.03;2.30;;;;;;;;;;4911293;29;20115;-77
2023/09/14 12:05:18;;;;;;;6.30;2.20;;;;;;;;;;4927868;29;20353;-77
2023/09/14 12:07:44;;;;;;;;;;;;;;;;;;4915366;29;20089;-77
2023/09/14 12:10:18;;;;;;;7.45;2.40;;;;;;;;;;4918460;29;20405;-79
2023/09/14 12:12:44;;;;;;;6.93;2.50;;;;;;;;;;4933866;29;20086;-77
2023/09/14 12:15:22;;;;;;;6.78;2.00;;;;;;;;;;4934224;29;20111;-77
2023/09/14 12:17:51;;;;;;;7.63;2.10;;;;;;;;;;4920142;29;20035;-77
2023/09/14 12:20:17;;;;;;;9.00;2.65;;;;;;;;;;4937131;29;20419;-77
2023/09/14 12:22:43;;;;;;;4.60;2.05;;;;;;;;;;4921281;29;20047;-77
2023/09/14 12:25:09;;;;;;;5.80;2.40;;;;;;;;;;4919224;29;20044;-78
2023/09/14 12:27:35;;;;;;;6.95;2.67;;;;;;;;;;4936941;29;20641;-78
2023/09/14 12:30:05;;;;;;;5.93;2.20;;;;;;;;;;4920802;29;20043;-77
2023/09/14 12:32:30;;;;;;;7.35;2.30;;;;;;;;;;4904418;29;20048;-77
2023/09/14 12:34:56;;;;;;;4.97;1.70;;;;;;;;;;4921741;29;20499;-77
2023/09/14 12:37:22;;;;;;;5.43;2.53;;;;;;;;;;4922536;29;20032;-78
2023/09/14 12:39:51;;;;;;;8.60;3.20;;;;;;;;;;4937758;29;20036;-77
2023/09/14 12:42:21;;;;;;;8.68;2.22;;;;;;;;;;4920015;29;20123;-78
2023/09/14 12:44:47;;;;;;;8.70;2.63;;;;;;;;;;4934346;29;20539;-77
2023/09/14 12:47:12;;;;;;;6.40;2.50;;;;;;;;;;4919255;29;20040;-80
2023/09/14 12:49:38;;;;;;;6.97;2.58;;;;;;;;;;4920024;29;20235;-77
2023/09/14 12:52:05;;;;;;;6.20;2.10;;;;;;;;;;4918835;29;20028;-78
2023/09/14 12:54:31;;;;;;;6.22;2.47;;;;;;;;;;4933419;29;20032;-77
2023/09/14 12:56:56;;;;;;;7.00;2.08;;;;;;;;;;4902426;29;20038;-79
2023/09/14 12:59:22;;;;;;;8.73;2.53;;;;;;;;;;4916647;29;20032;-78
2023/09/14 13:01:48;;;;;;;9.23;2.97;;;;;;;;;;4922199;29;20575;-77
2023/09/14 13:04:14;;;;;;;7.53;3.28;;;;;;;;;;4919894;29;20047;-78
2023/09/14 13:06:39;;;;;;;9.40;3.03;;;;;;;;;;4919250;29;20119;-78
2023/09/14 13:09:08;;;;;;;5.85;2.60;;;;;;;;;;4921478;29;20093;-78
2023/09/14 13:11:36;;;;;;;9.00;2.50;;;;;;;;;;4892088;29;20072;-78
2023/09/14 13:14:05;;;;;;;7.32;3.53;;;;;;;;;;4891942;29;20029;-79
2023/09/14 13:16:31;;;;;;;6.55;3.00;;;;;;;;;;4920675;29;20028;-79
2023/09/14 13:19:00;;;;;;;10.35;3.30;;;;;;;;;;4920619;29;20503;-78
2023/09/14 13:21:26;;;;;;;7.75;3.30;;;;;;;;;;4920331;29;20036;-78
2023/09/14 13:23:55;;;;;;;10.25;4.22;;;;;;;;;;4904632;29;20519;-78
2023/09/14 13:26:21;;;;;;;8.68;3.40;;;;;;;;;;4918115;29;20028;-78
2023/09/14 13:28:46;;;;;;;8.82;4.10;;;;;;;;;;4929349;29;20448;-78
2023/09/14 13:31:13;;;;;;;10.70;4.10;;;;;;;;;;4903563;29;20060;-77
2023/09/14 13:33:39;;;;;;;13.82;4.93;;;;;;;;;;4909745;29;20107;-78
2023/09/14 13:36:04;;;;;;;8.95;3.92;;;;;;;;;;4907013;29;20168;-77
2023/09/14 13:38:30;;;;;;;10.93;3.47;;;;;;;;;;4912449;29;20180;-78
2023/09/14 13:40:56;;;;;;;6.35;3.20;;;;;;;;;;4904088;29;20533;-77
2023/09/14 13:43:21;;;;;;;10.40;4.18;;;;;;;;;;4921408;29;20116;-77
2023/09/14 13:45:47;;;;;;;7.78;3.65;;;;;;;;;;4909760;29;20063;-78
2023/09/14 13:48:13;;;;;;;9.02;3.40;;;;;;;;;;4901498;29;20033;-78
2023/09/14 13:50:39;;;;;;;8.00;3.33;;;;;;;;;;4929493;29;20056;-78
2023/09/14 13:53:09;;;;;;;9.35;3.53;;;;;;;;;;4911569;29;20043;-78
2023/09/14 13:55:35;;;;;;;11.70;3.92;;;;;;;;;;4911620;29;20029;-77
2023/09/14 13:58:00;;;;;;;8.48;3.53;;;;;;;;;;4915027;29;20040;-78
2023/09/14 14:00:26;;;;;;;10.00;3.90;;;;;;;;;;4920606;29;20048;-79
2023/09/14 14:03:04;;;;;;;8.07;4.25;;;;;;;;;;4914351;29;20036;-78
2023/09/14 14:05:30;;;;;;;9.30;4.32;;;;;;;;;;4931231;29;20036;-77
2023/09/14 14:07:58;;;;;;;11.23;4.70;;;;;;;;;;4922139;29;20404;-78
2023/09/14 14:10:24;;;;;;;10.70;4.70;;;;;;;;;;4916870;29;20032;-79
2023/09/14 14:12:50;;;;;;;13.68;4.90;;;;;;;;;;4923566;29;20036;-77
2023/09/14 14:15:15;;;;;;;11.70;4.70;;;;;;;;;;4918467;29;20488;-77
2023/09/14 14:17:42;;;;;;;12.07;4.55;;;;;;;;;;4913927;29;20435;-78
2023/09/14 14:20:08;;;;;;;10.70;4.47;;;;;;;;;;4933215;29;20404;-78
2023/09/14 14:22:35;;;;;;;11.73;4.70;;;;;;;;;;4931524;29;20028;-78
2023/09/14 14:25:01;;;;;;;13.32;4.93;;;;;;;;;;4911517;29;20039;-78
2023/09/14 14:27:26;;;;;;;9.93;4.40;;;;;;;;;;4913999;29;20028;-78
2023/09/14 14:29:52;;;;;;;11.05;5.03;;;;;;;;;;4909930;29;20486;-77
2023/09/14 14:32:17;;;;;;;9.23;4.60;;;;;;;;;;4922179;29;20027;-77
2023/09/14 14:34:43;;;;;;;10.30;4.93;;;;;;;;;;4916697;29;20028;-78
2023/09/14 14:37:12;;;;;;;9.32;4.30;;;;;;;;;;4916348;29;20051;-77